createdAt,value
2018-08-30T00:04:11.945Z,6.97
2018-08-30T00:09:15.471Z,6.25
2018-08-30T00:14:18.989Z,6.35
2018-08-30T00:19:22.513Z,6.12
2018-08-30T00:24:25.992Z,6.03
2018-08-30T00:29:29.530Z,6.10
2018-08-30T00:34:33.023Z,6.25
2018-08-30T00:39:36.559Z,6.12
2018-08-30T00:44:40.030Z,5.87
2018-08-30T00:49:43.612Z,6.28
2018-08-30T00:54:47.283Z,5.70
2018-08-30T00:59:51.353Z,6.45
2018-08-30T01:04:54.930Z,6.50
2018-08-30T01:09:58.476Z,5.95
2018-08-30T01:15:02.234Z,6.50
2018-08-30T01:20:06.058Z,6.10
2018-08-30T01:25:10.150Z,7.40
2018-08-30T01:31:38.105Z,6.80
2018-08-30T01:36:43.218Z,6.20
2018-08-30T01:41:46.815Z,7.87
2018-08-30T01:46:56.765Z,8.73
2018-08-30T01:52:00.317Z,8.25
2018-08-30T01:57:03.870Z,7.72
2018-08-30T02:02:07.406Z,7.85
2018-08-30T02:07:11.159Z,7.75
2018-08-30T02:12:14.638Z,7.70
2018-08-30T02:17:18.148Z,9.03
2018-08-30T02:22:21.645Z,8.43
2018-08-30T02:27:25.243Z,8.40
2018-08-30T02:32:28.833Z,8.03
2018-08-30T02:37:32.358Z,9.20
2018-08-30T02:42:35.919Z,8.70
2018-08-30T02:47:39.523Z,8.85
2018-08-30T02:52:43.140Z,8.60
2018-08-30T02:57:46.678Z,9.33
2018-08-30T03:02:50.238Z,8.88
2018-08-30T03:07:53.785Z,9.23
2018-08-30T03:12:57.415Z,8.80
2018-08-30T03:18:01.000Z,9.20
2018-08-30T03:23:04.634Z,9.18
2018-08-30T03:28:08.142Z,8.73
2018-08-30T03:33:11.689Z,9.30
2018-08-30T03:38:15.301Z,9.33
2018-08-30T03:43:18.821Z,9.33
2018-08-30T03:48:22.531Z,10.58
2018-08-30T03:53:32.257Z,10.70
2018-08-30T03:58:35.769Z,9.93
2018-08-30T04:03:39.252Z,10.25
2018-08-30T04:08:42.808Z,10.38
2018-08-30T04:13:46.491Z,10.40
2018-08-30T04:18:54.154Z,10.18
2018-08-30T04:23:57.826Z,10.15
2018-08-30T04:29:02.423Z,10.48
2018-08-30T04:34:06.125Z,10.88
2018-08-30T04:39:09.677Z,11.48
2018-08-30T04:44:13.278Z,10.50
2018-08-30T04:49:16.810Z,10.43
2018-08-30T04:54:20.350Z,10.60
2018-08-30T04:59:23.887Z,10.90
2018-08-30T05:04:27.480Z,10.85
2018-08-30T05:09:31.089Z,11.10
2018-08-30T05:14:34.573Z,10.95
2018-08-30T05:19:38.109Z,10.28
2018-08-30T05:24:41.662Z,11.80
2018-08-30T05:29:45.313Z,10.48
2018-08-30T05:34:48.841Z,11.20
2018-08-30T05:39:52.454Z,11.50
2018-08-30T05:44:55.993Z,11.40
2018-08-30T05:49:59.475Z,11.68
2018-08-30T05:55:03.445Z,11.85
2018-08-30T06:00:07.740Z,12.06
2018-08-30T06:05:11.381Z,14.07
2018-08-30T06:10:14.900Z,12.30
2018-08-30T06:15:18.418Z,13.00
2018-08-30T06:20:21.959Z,12.98
2018-08-30T06:25:25.842Z,12.90
2018-08-30T06:30:29.612Z,12.90
2018-08-30T06:35:33.297Z,13.13
2018-08-30T06:40:36.825Z,12.53
2018-08-30T06:45:40.380Z,14.55
2018-08-30T06:50:44.002Z,12.75
2018-08-30T06:55:47.822Z,15.08
2018-08-30T07:00:51.358Z,13.98
2018-08-30T07:05:54.926Z,16.42
2018-08-30T07:10:58.427Z,16.37
2018-08-30T07:16:08.499Z,16.07
2018-08-30T07:21:12.190Z,18.35
2018-08-30T07:26:15.715Z,18.20
2018-08-30T07:31:19.470Z,18.87
2018-08-30T07:36:23.095Z,18.02
2018-08-30T07:41:26.580Z,18.95
2018-08-30T07:46:30.178Z,19.40
2018-08-30T07:51:33.809Z,19.42
2018-08-30T07:56:37.418Z,20.70
2018-08-30T08:01:41.394Z,19.30
2018-08-30T08:06:45.062Z,20.48
2018-08-30T08:11:48.659Z,20.52
2018-08-30T08:16:52.156Z,21.55
2018-08-30T08:21:56.068Z,21.17
2018-08-30T08:27:00.931Z,22.45
2018-08-30T08:32:04.533Z,23.27
2018-08-30T08:37:09.061Z,20.85
2018-08-30T08:42:12.583Z,21.65
2018-08-30T08:47:16.574Z,19.92
2018-08-30T08:52:20.184Z,17.82
2018-08-30T08:57:23.754Z,16.57
2018-08-30T09:02:27.299Z,18.67
2018-08-30T09:07:30.849Z,19.50
2018-08-30T09:12:34.571Z,17.23
2018-08-30T09:17:38.240Z,17.50
2018-08-30T09:22:41.793Z,16.60
2018-08-30T09:27:45.353Z,15.18
2018-08-30T09:32:48.970Z,15.72
2018-08-30T09:37:52.526Z,15.28
2018-08-30T09:42:56.043Z,15.70
2018-08-30T09:47:59.691Z,14.05
2018-08-30T09:53:03.206Z,15.93
2018-08-30T09:58:06.811Z,15.50
2018-08-30T10:03:10.506Z,15.25
2018-08-30T10:08:13.988Z,15.68
2018-08-30T10:13:17.494Z,8.75
2018-08-30T10:18:21.024Z,6.70
2018-08-30T10:23:24.578Z,7.42
2018-08-30T10:28:28.176Z,7.92
2018-08-30T10:33:31.694Z,8.50
2018-08-30T10:38:35.249Z,7.83
2018-08-30T10:43:38.773Z,7.42
2018-08-30T10:48:42.898Z,7.35
2018-08-30T10:53:46.465Z,7.70
2018-08-30T10:58:50.100Z,7.93
2018-08-30T11:03:53.835Z,7.35
2018-08-30T11:08:57.345Z,8.63
2018-08-30T11:14:00.888Z,7.65
2018-08-30T11:19:04.459Z,7.20
2018-08-30T11:24:08.478Z,5.47
2018-08-30T11:29:12.027Z,4.17
2018-08-30T11:34:15.702Z,6.08
2018-08-30T11:39:19.221Z,7.33
2018-08-30T11:44:22.808Z,5.10
2018-08-30T11:49:26.353Z,4.28
2018-08-30T11:54:29.842Z,3.90
2018-08-30T11:59:33.393Z,3.72
2018-08-30T12:04:37.866Z,3.27
2018-08-30T12:09:41.552Z,3.15
2018-08-30T12:14:45.115Z,3.67
2018-08-30T12:19:48.643Z,4.60
2018-08-30T12:24:52.158Z,5.55
2018-08-30T12:29:55.691Z,5.55
2018-08-30T12:34:59.315Z,4.70
2018-08-30T12:40:03.196Z,4.33
2018-08-30T12:45:06.683Z,4.22
2018-08-30T12:50:10.281Z,4.17
2018-08-30T12:55:13.727Z,3.55
2018-08-30T13:00:17.441Z,4.10
2018-08-30T13:05:21.096Z,4.37
2018-08-30T13:10:24.712Z,4.05
2018-08-30T13:15:28.284Z,4.85
2018-08-30T13:20:31.876Z,5.35
2018-08-30T13:25:35.456Z,5.67
2018-08-30T13:30:39.046Z,6.65
2018-08-30T13:35:42.660Z,7.08
2018-08-30T13:40:46.352Z,8.20
2018-08-30T13:45:49.793Z,8.43
2018-08-30T13:50:53.431Z,8.35
2018-08-30T13:55:56.840Z,8.18
2018-08-30T14:01:00.836Z,8.48
2018-08-30T14:06:03.745Z,9.85
2018-08-30T14:11:13.693Z,9.35
2018-08-30T14:16:17.055Z,9.98
2018-08-30T14:21:21.459Z,9.75
2018-08-30T14:26:25.092Z,9.80
2018-08-30T14:31:28.522Z,10.00
2018-08-30T14:36:32.066Z,9.55
2018-08-30T14:41:35.520Z,9.30
2018-08-30T14:46:45.441Z,9.90
2018-08-30T14:51:49.057Z,10.58
2018-08-30T14:56:52.616Z,10.15
2018-08-30T15:01:56.170Z,11.55
2018-08-30T15:06:59.658Z,10.50
2018-08-30T15:12:03.259Z,10.38
2018-08-30T15:17:06.726Z,10.55
2018-08-30T15:22:10.410Z,10.35
2018-08-30T15:27:13.947Z,10.58
2018-08-30T15:32:17.396Z,9.40
2018-08-30T15:37:20.882Z,10.05
2018-08-30T15:42:24.492Z,8.43
2018-08-30T15:47:28.026Z,6.50
2018-08-30T15:52:31.490Z,6.03
2018-08-30T15:57:35.078Z,5.35
2018-08-30T16:02:38.555Z,5.47
2018-08-30T16:07:42.590Z,5.85
2018-08-30T16:12:46.066Z,5.17
2018-08-30T16:17:50.083Z,5.87
2018-08-30T16:23:12.459Z,5.70
2018-08-30T16:28:16.010Z,5.78
2018-08-30T16:33:19.527Z,5.50
2018-08-30T16:38:23.256Z,5.67
2018-08-30T16:43:26.704Z,5.42
2018-08-30T16:48:30.266Z,5.95
2018-08-30T16:53:33.772Z,5.80
2018-08-30T16:58:37.320Z,5.53
2018-08-30T17:03:40.737Z,5.25
2018-08-30T17:08:44.382Z,4.62
2018-08-30T17:13:47.857Z,4.85
2018-08-30T17:18:53.213Z,5.47
2018-08-30T17:23:57.202Z,5.70
2018-08-30T17:29:00.752Z,6.05
2018-08-30T17:34:04.493Z,6.75
2018-08-30T17:39:09.724Z,7.55
2018-08-30T17:44:13.408Z,7.20
2018-08-30T17:49:17.821Z,7.33
2018-08-30T17:54:21.627Z,7.87
2018-08-30T17:59:25.228Z,7.10
2018-08-30T18:04:28.858Z,5.92
2018-08-30T18:09:32.417Z,6.10
2018-08-30T18:14:35.977Z,5.97
2018-08-30T18:19:39.589Z,6.53
2018-08-30T18:24:43.108Z,5.40
2018-08-30T18:29:46.851Z,5.83
2018-08-30T18:34:50.448Z,6.00
2018-08-30T18:39:54.113Z,6.08
2018-08-30T18:44:57.666Z,5.87
2018-08-30T18:50:01.346Z,6.03
2018-08-30T18:55:05.187Z,4.87
2018-08-30T19:00:08.989Z,4.70
2018-08-30T19:05:12.491Z,4.90
2018-08-30T19:10:15.956Z,4.93
2018-08-30T19:15:24.621Z,4.63
2018-08-30T19:20:28.230Z,4.83
2018-08-30T19:25:31.855Z,4.97
2018-08-30T19:30:35.468Z,4.53
2018-08-30T19:35:44.351Z,4.55
2018-08-30T19:40:53.043Z,4.87
2018-08-30T19:45:56.546Z,5.05
2018-08-30T19:51:00.111Z,4.97
2018-08-30T19:56:03.591Z,5.28
2018-08-30T20:01:07.318Z,4.67
2018-08-30T20:06:10.810Z,4.53
2018-08-30T20:11:14.410Z,4.40
2018-08-30T20:16:17.925Z,4.65
2018-08-30T20:21:21.518Z,5.33
2018-08-30T20:26:25.426Z,4.62
2018-08-30T20:31:29.090Z,4.78
2018-08-30T20:36:32.616Z,4.87
2018-08-30T20:41:36.217Z,4.58
2018-08-30T20:46:39.905Z,4.60
2018-08-30T20:51:43.385Z,4.12
2018-08-30T20:56:47.107Z,3.97
2018-08-30T21:01:50.798Z,4.33
2018-08-30T21:06:54.381Z,4.93
2018-08-30T21:11:57.926Z,4.40
2018-08-30T21:17:01.391Z,4.47
2018-08-30T21:22:04.918Z,4.10
2018-08-30T21:27:08.437Z,4.12
2018-08-30T21:32:12.083Z,4.70
2018-08-30T21:37:15.806Z,4.10
2018-08-30T21:42:19.383Z,4.10
2018-08-30T21:47:22.956Z,3.50
2018-08-30T21:52:26.524Z,3.67
2018-08-30T21:57:30.078Z,4.00
2018-08-30T22:02:33.570Z,3.30
2018-08-30T22:07:37.082Z,3.60
2018-08-30T22:12:40.625Z,3.12
2018-08-30T22:17:44.178Z,3.45
2018-08-30T22:22:47.698Z,4.00
2018-08-30T22:27:51.258Z,3.77
2018-08-30T22:32:54.827Z,3.30
2018-08-30T22:37:58.377Z,3.92
2018-08-30T22:43:01.914Z,3.33
2018-08-30T22:48:05.544Z,3.27
2018-08-30T22:53:09.066Z,3.45
2018-08-30T22:58:12.553Z,3.15
2018-08-30T23:03:16.209Z,3.62
2018-08-30T23:08:19.755Z,3.65
2018-08-30T23:13:23.257Z,3.62
2018-08-30T23:18:26.874Z,3.35
2018-08-30T23:23:31.057Z,3.60
2018-08-30T23:28:34.622Z,3.70
2018-08-30T23:33:38.203Z,3.33
2018-08-30T23:38:41.773Z,2.95
2018-08-30T23:43:45.253Z,2.70
2018-08-30T23:48:48.842Z,2.65
2018-08-30T23:53:52.342Z,2.00
2018-08-30T23:59:07.059Z,2.50
